• 1

Unser Programm für 2016

  • 31.7. Familientag in Rechberghausen

    Liebe Flugbegeisterte
    auf dem Familientag in Rechberghausen sind wir Partner der NWZ. Wer Lust hat, darf im Flugsimulator ein paar Runden drehen und wer Glück hat, kann tolle Preise gewinnen

  • 3. und 4. September 2016 Flugplatzfest

    3. und 4. September 2016 Flugplatzfest

    Auch 2016 lädt der AeroClub Göppingen-Salach am 03.09. wieder zum bekannten Flugplatzfest auf dem Flugplatz Gruibingen-Nortel ein.

    Es erwarten sie auch dieses Jahr wieder ein spannendes Flugprogram mit einem Querschnitt

    zum Bericht
  • Unsere Gaststätte ist geöffnet

    Unsere Gaststätte ist geöffnet

    Wir freuen uns auf Ihren Besuch

    zum Bericht
  • 1

WebCam

Kamera Halle
Kamera Vorplatz
Wetter EDDS

METAR

EDDS 260920Z VRB03KT CAVOK 28/19 Q1019 =


TAF

EDDS 260500Z 2606/2706 VRB03KT CAVOK TEMPO 2612/2618 35005KT =


SR/SS

04:31 / 18:14 UTC
(EDSO 26-08-2016)

Austräger der GPS Triangle WM 2017